Time;durP1;ratioP1;P1;durP2;ratioP2;P2;SDS_P1;SDS_P2;PMS_P1;PMS_P2;Temp;Humidity;BMP_temperature;BMP_pressure;BME280_temperature;BME280_humidity;BME280_pressure;Samples;Min_cycle;Max_cycle;Signal;HPM_P1;HPM_P2
2022/05/26 00:01:52;;;;;;;5.18;3.60;;;25.80;70.00;;;;;;10891080;32;20054;-73
2022/05/26 00:07:54;;;;;;;4.03;2.62;;;25.80;70.40;;;;;;10901897;32;20422;-73
2022/05/26 00:13:57;;;;;;;5.12;4.25;;;25.80;70.40;;;;;;10903751;32;20045;-73
2022/05/26 00:19:59;;;;;;;4.93;3.83;;;25.80;70.20;;;;;;10338835;32;15154450;-73
2022/05/26 00:26:02;;;;;;;6.97;4.32;;;25.80;70.30;;;;;;10795578;33;20397;-74
2022/05/26 00:32:05;;;;;;;10.27;4.05;;;25.80;70.50;;;;;;10793024;33;20033;-73
2022/05/26 00:38:10;;;;;;;5.55;4.45;;;25.70;71.10;;;;;;10795107;33;20051;-73
2022/05/26 00:44:12;;;;;;;10.38;4.70;;;25.60;71.60;;;;;;10874034;32;20058;-73
2022/05/26 00:50:21;;;;;;;6.00;4.00;;;25.60;71.70;;;;;;10906206;32;20348;-74
2022/05/26 00:57:08;;;;;;;5.25;3.95;;;25.60;71.70;;;;;;10895777;32;20027;-73
2022/05/26 01:03:37;;;;;;;8.65;4.85;;;25.50;72.10;;;;;;10827754;32;20031;-73
2022/05/26 01:09:39;;;;;;;6.65;4.20;;;25.30;72.90;;;;;;10831042;32;20066;-73
2022/05/26 01:15:46;;;;;;;5.20;3.85;;;25.30;73.10;;;;;;10833590;27;20079;-73
2022/05/26 01:22:00;;;;;;;7.43;4.80;;;25.30;73.20;;;;;;10828764;32;20040;-74
2022/05/26 01:28:13;;;;;;;5.95;4.45;;;25.30;73.20;;;;;;10830708;32;20020;-73
2022/05/26 01:34:24;;;;;;;6.10;4.43;;;25.30;73.30;;;;;;10863829;32;20031;-73
2022/05/26 01:40:55;;;;;;;9.40;6.60;;;25.10;73.50;;;;;;10866355;32;20027;-73
2022/05/26 01:47:20;;;;;;;7.57;5.62;;;25.10;73.40;;;;;;10870464;32;20023;-74
2022/05/26 01:54:22;;;;;;;8.73;5.53;;;25.00;73.40;;;;;;10870218;32;20031;-73
2022/05/26 02:00:24;;;;;;;9.45;5.55;;;25.00;73.40;;;;;;10865768;32;20343;-73
2022/05/26 02:06:32;;;;;;;6.60;4.97;;;25.00;73.20;;;;;;10865339;32;20062;-73
2022/05/26 02:12:47;;;;;;;8.57;5.55;;;25.00;73.10;;;;;;10869435;32;20063;-73
2022/05/26 02:19:11;;;;;;;11.65;6.15;;;25.00;73.00;;;;;;10869285;32;20023;-73
2022/05/26 02:25:17;;;;;;;8.48;6.22;;;24.80;73.80;;;;;;10868994;32;20039;-73
2022/05/26 02:31:24;;;;;;;10.23;4.90;;;24.60;74.70;;;;;;10868965;32;20024;-73
2022/05/26 02:37:26;;;;;;;10.77;5.85;;;24.50;75.30;;;;;;10868553;32;20024;-73
2022/05/26 02:43:31;;;;;;;10.98;5.18;;;24.50;75.80;;;;;;10867793;32;20067;-73
2022/05/26 02:49:59;;;;;;;13.20;5.95;;;24.50;75.70;;;;;;10868392;32;20540;-73
2022/05/26 02:56:21;;;;;;;11.80;7.03;;;24.50;75.70;;;;;;10867255;32;20059;-73
2022/05/26 03:02:33;;;;;;;14.32;6.90;;;24.40;75.90;;;;;;10867815;32;20054;-73
2022/05/26 03:08:39;;;;;;;12.88;6.25;;;24.50;75.80;;;;;;10867800;32;20046;-73
2022/05/26 03:14:41;;;;;;;11.35;6.95;;;24.50;76.30;;;;;;10863381;32;20086;-73
2022/05/26 03:20:43;;;;;;;13.57;6.28;;;24.40;76.60;;;;;;10865013;32;20362;-73
2022/05/26 03:27:08;;;;;;;10.15;7.78;;;24.40;76.70;;;;;;10863834;32;20031;-73
2022/05/26 03:33:10;;;;;;;16.92;7.80;;;24.30;76.90;;;;;;10867336;32;20054;-73
2022/05/26 03:45:36;;;;;;;13.27;7.45;;;24.30;77.20;;;;;;10866927;32;20049;-74
2022/05/26 03:51:38;;;;;;;9.30;6.50;;;24.50;76.90;;;;;;10865783;32;20027;-73
2022/05/26 03:57:43;;;;;;;11.82;6.60;;;24.50;76.80;;;;;;10872246;32;20050;-73
2022/05/26 04:03:45;;;;;;;10.88;5.93;;;24.50;76.70;;;;;;10870397;32;20031;-74
2022/05/26 04:09:47;;;;;;;11.63;7.18;;;24.50;76.90;;;;;;10873879;32;20050;-73
2022/05/26 04:15:49;;;;;;;14.38;7.68;;;24.50;76.90;;;;;;10873645;32;20043;-74
2022/05/26 04:22:18;;;;;;;11.93;8.60;;;24.30;77.00;;;;;;10873663;32;20051;-73
2022/05/26 04:28:21;;;;;;;16.02;10.18;;;24.30;77.00;;;;;;10873558;32;20438;-74
2022/05/26 04:34:23;;;;;;;9.43;8.02;;;24.30;77.40;;;;;;10869027;32;20065;-73
2022/05/26 04:40:25;;;;;;;22.87;9.52;;;24.30;77.50;;;;;;10868907;32;20345;-73
2022/05/26 04:46:27;;;;;;;16.17;9.70;;;24.30;77.70;;;;;;10872629;32;20028;-73
2022/05/26 04:52:29;;;;;;;16.83;9.30;;;24.30;77.70;;;;;;10872487;32;20023;-73
2022/05/26 04:58:31;;;;;;;14.13;10.23;;;24.30;77.60;;;;;;10872345;32;20059;-74
2022/05/26 05:04:33;;;;;;;29.25;10.93;;;24.30;77.70;;;;;;10867056;32;20066;-73
2022/05/26 05:10:35;;;;;;;12.00;7.93;;;24.40;77.60;;;;;;10871785;32;20019;-74
2022/05/26 05:16:42;;;;;;;14.02;8.43;;;24.60;77.60;;;;;;10871513;32;20047;-76
2022/05/26 05:23:02;;;;;;;20.98;9.32;;;24.60;77.30;;;;;;10871335;32;20054;-78
2022/05/26 05:29:11;;;;;;;10.55;8.45;;;24.60;77.40;;;;;;10871272;32;20020;-74
2022/05/26 05:35:19;;;;;;;10.85;7.70;;;24.50;78.00;;;;;;10866820;32;20031;-74
2022/05/26 05:41:22;;;;;;;;;;;24.60;77.90;;;;;;10870307;32;20027;-74
2022/05/26 05:47:30;;;;;;;9.10;6.87;;;24.70;77.70;;;;;;10869646;32;19939;-76
2022/05/26 05:53:32;;;;;;;10.40;5.05;;;24.70;77.70;;;;;;10866059;32;20050;-74
2022/05/26 05:59:34;;;;;;;8.20;4.60;;;24.80;77.30;;;;;;10869515;32;20023;-78
2022/05/26 06:05:37;;;;;;;9.85;4.80;;;24.70;77.30;;;;;;10869279;32;20035;-75
2022/05/26 06:11:43;;;;;;;8.10;5.75;;;24.80;77.10;;;;;;10865445;32;20040;-74
2022/05/26 06:17:45;;;;;;;18.52;6.75;;;24.80;76.90;;;;;;10864296;32;20023;-75
2022/05/26 06:23:48;;;;;;;7.90;5.50;;;24.90;77.10;;;;;;10876207;32;20450;-74
2022/05/26 06:29:50;;;;;;;7.50;5.18;;;24.90;76.90;;;;;;10901061;32;20057;-74
2022/05/26 06:42:18;;;;;;;9.85;4.97;;;25.10;76.10;;;;;;10862864;32;20082;-74
2022/05/26 06:48:19;;;;;;;10.13;5.35;;;25.10;75.90;;;;;;10862397;32;20058;-74
2022/05/26 06:54:22;;;;;;;6.95;5.07;;;25.10;75.80;;;;;;10864361;32;20063;-76
2022/05/26 07:00:24;;;;;;;8.75;6.35;;;25.30;75.30;;;;;;10867471;32;20054;-74
2022/05/26 07:06:28;;;;;;;6.47;4.05;;;25.50;74.90;;;;;;10864577;32;20019;-74
2022/05/26 07:12:30;;;;;;;6.62;4.45;;;25.70;74.30;;;;;;10867579;32;20015;-74
2022/05/26 07:18:32;;;;;;;10.02;3.50;;;25.80;73.90;;;;;;10867275;32;20042;-74
2022/05/26 07:24:35;;;;;;;8.25;4.55;;;25.90;73.70;;;;;;10861044;32;20020;-75
2022/05/26 07:31:04;;;;;;;11.10;5.40;;;26.00;73.40;;;;;;10867615;32;20335;-74
2022/05/26 07:43:27;;;;;;;11.12;4.30;;;26.00;73.10;;;;;;10865634;32;20035;-74
2022/05/26 07:49:29;;;;;;;15.60;5.60;;;26.00;73.00;;;;;;10866811;32;20019;-74
2022/05/26 07:55:33;;;;;;;11.45;5.20;;;26.20;72.60;;;;;;10862933;32;20038;-74
2022/05/26 08:01:35;;;;;;;16.75;6.82;;;26.30;72.00;;;;;;10866480;32;20054;-75
2022/05/26 08:07:37;;;;;;;14.00;5.30;;;26.30;71.50;;;;;;10864308;32;20057;-74
2022/05/26 08:13:39;;;;;;;8.48;4.85;;;26.40;71.50;;;;;;10863886;32;20023;-74
2022/05/26 08:19:42;;;;;;;7.25;4.68;;;26.70;71.20;;;;;;10866049;32;20045;-74
2022/05/26 08:25:44;;;;;;;11.93;5.57;;;26.80;70.20;;;;;;10862253;32;20312;-74
2022/05/26 08:31:46;;;;;;;10.70;5.32;;;26.80;70.40;;;;;;10863950;32;20024;-74
2022/05/26 08:37:48;;;;;;;15.45;5.35;;;26.90;69.90;;;;;;10863670;32;20061;-76
2022/05/26 08:44:08;;;;;;;11.12;4.40;;;27.10;69.60;;;;;;10868526;32;20298;-75
2022/05/26 08:50:16;;;;;;;7.70;4.82;;;27.30;69.00;;;;;;10868326;32;20036;-74
2022/05/26 08:56:22;;;;;;;10.35;5.75;;;27.40;68.60;;;;;;10870686;32;20016;-74
2022/05/26 09:02:36;;;;;;;6.87;4.47;;;27.30;69.20;;;;;;10871767;32;20324;-75
2022/05/26 09:15:03;;;;;;;11.30;4.65;;;27.70;68.00;;;;;;10910588;27;20038;-74
2022/05/26 09:21:29;;;;;;;12.98;5.85;;;27.90;67.40;;;;;;10984168;32;20378;-75
2022/05/26 09:27:35;;;;;;;19.17;5.82;;;28.10;66.00;;;;;;10981543;32;20177;-74
2022/05/26 09:33:38;;;;;;;11.82;5.72;;;28.10;66.30;;;;;;10961319;32;20406;-75
2022/05/26 09:39:42;;;;;;;10.90;6.03;;;27.90;67.00;;;;;;10940910;32;20038;-75
2022/05/26 09:45:46;;;;;;;5.30;3.97;;;27.80;66.70;;;;;;10979282;32;20300;-75
2022/05/26 09:51:49;;;;;;;8.95;4.22;;;27.80;66.80;;;;;;10973225;32;20390;-74
2022/05/26 09:58:06;;;;;;;8.48;4.40;;;28.10;66.20;;;;;;10982427;32;20403;-77
2022/05/26 10:04:16;;;;;;;15.23;5.67;;;28.50;65.30;;;;;;10958263;32;20034;-74
2022/05/26 10:10:22;;;;;;;6.05;4.10;;;28.80;64.00;;;;;;10945154;32;20114;-78
2022/05/26 10:16:28;;;;;;;5.35;3.72;;;28.90;63.50;;;;;;10940279;32;20019;-78
2022/05/26 10:22:38;;;;;;;13.05;5.40;;;29.00;64.30;;;;;;10944187;32;20391;-75
2022/05/26 10:28:54;;;;;;;8.75;3.58;;;28.90;64.00;;;;;;10939904;32;20031;-77
2022/05/26 10:35:25;;;;;;;6.97;4.15;;;29.10;63.30;;;;;;10943936;32;20042;-75
2022/05/26 10:41:52;;;;;;;11.82;3.62;;;29.40;62.10;;;;;;10943390;32;20046;-75
2022/05/26 10:47:56;;;;;;;;;;;29.70;60.50;;;;;;10943822;32;20343;-74
2022/05/26 10:54:24;;;;;;;7.30;2.58;;;29.80;61.10;;;;;;10943142;32;20242;-76
2022/05/26 11:00:29;;;;;;;6.55;3.50;;;30.00;60.50;;;;;;10925662;32;20027;-76
2022/05/26 11:06:35;;;;;;;4.78;2.60;;;30.40;59.30;;;;;;10938420;32;20049;-74
2022/05/26 11:12:59;;;;;;;11.35;3.58;;;30.70;58.80;;;;;;10942581;32;20027;-77
2022/05/26 11:19:16;;;;;;;6.18;3.50;;;30.70;57.90;;;;;;10939059;32;20045;-75
2022/05/26 11:25:50;;;;;;;6.32;3.53;;;30.40;58.00;;;;;;10942005;32;20034;-77
2022/05/26 11:38:35;;;;;;;3.80;2.40;;;29.90;59.10;;;;;;10788984;32;20055;-74
2022/05/26 11:44:41;;;;;;;6.53;2.78;;;29.70;59.30;;;;;;10788575;32;20051;-76
2022/05/26 11:50:43;;;;;;;7.78;3.05;;;29.70;59.10;;;;;;10787624;33;20090;-75
2022/05/26 11:56:49;;;;;;;9.93;3.35;;;29.50;59.70;;;;;;10785827;33;20032;-74
2022/05/26 12:03:23;;;;;;;7.72;3.35;;;29.50;58.90;;;;;;10785496;33;20040;-74
2022/05/26 12:09:31;;;;;;;5.50;2.83;;;29.60;58.80;;;;;;10925748;32;20039;-75
2022/05/26 12:15:33;;;;;;;6.75;3.05;;;29.70;58.50;;;;;;10947720;32;20023;-75
2022/05/26 12:21:48;;;;;;;5.93;2.95;;;29.70;57.90;;;;;;10948132;32;20324;-74
2022/05/26 12:27:54;;;;;;;6.05;2.70;;;29.80;57.50;;;;;;10955335;32;20030;-74
2022/05/26 12:34:06;;;;;;;5.35;2.85;;;29.80;57.20;;;;;;10985735;32;20019;-74
2022/05/26 12:40:21;;;;;;;3.25;2.28;;;30.00;57.00;;;;;;10982805;32;20023;-75
2022/05/26 12:46:44;;;;;;;6.20;3.03;;;30.00;56.50;;;;;;10985206;32;20535;-75
2022/05/26 12:53:06;;;;;;;2.62;2.05;;;30.00;56.60;;;;;;10967383;32;20031;-74
2022/05/26 12:59:12;;;;;;;5.93;3.15;;;30.20;56.30;;;;;;10984829;32;20019;-74
2022/05/26 13:05:16;;;;;;;8.60;2.58;;;30.20;56.10;;;;;;10984801;32;20031;-75
2022/05/26 13:11:32;;;;;;;7.68;3.65;;;30.30;55.90;;;;;;10971277;32;20023;-74
2022/05/26 13:17:34;;;;;;;6.10;3.10;;;30.30;55.40;;;;;;10984149;32;20053;-74
2022/05/26 13:23:40;;;;;;;5.00;3.25;;;30.20;55.50;;;;;;10983420;32;20022;-76
2022/05/26 13:36:50;;;;;;;5.12;2.53;;;29.90;56.50;;;;;;10789107;32;20099;-74
2022/05/26 13:42:53;;;;;;;9.18;2.58;;;29.60;57.10;;;;;;10791668;33;20037;-76
2022/05/26 13:49:00;;;;;;;7.82;2.95;;;29.30;57.60;;;;;;10790451;33;20032;-76
2022/05/26 13:55:27;;;;;;;3.62;2.20;;;29.10;57.90;;;;;;10789419;33;20406;-76
2022/05/26 14:01:29;;;;;;;4.95;2.47;;;28.90;58.30;;;;;;10792815;33;20051;-76
2022/05/26 14:07:37;;;;;;;3.03;1.45;;;28.80;58.70;;;;;;10792297;33;20350;-76
2022/05/26 14:13:39;;;;;;;6.72;2.25;;;28.70;58.90;;;;;;10945282;32;20049;-76
2022/05/26 14:19:49;;;;;;;4.05;2.30;;;28.60;59.00;;;;;;10981698;32;20309;-76
2022/05/26 14:26:24;;;;;;;4.10;2.28;;;28.50;59.00;;;;;;10976658;32;20026;-74
2022/05/26 14:32:38;;;;;;;5.82;2.58;;;28.40;59.20;;;;;;10976760;32;20034;-73
2022/05/26 14:38:41;;;;;;;9.98;2.25;;;28.40;59.40;;;;;;10978892;32;20022;-75
2022/05/26 14:44:46;;;;;;;4.28;1.90;;;28.40;59.40;;;;;;10980767;32;20061;-74
2022/05/26 14:50:48;;;;;;;3.33;1.55;;;28.40;59.40;;;;;;10963177;32;20318;-74
2022/05/26 14:56:51;;;;;;;9.10;2.60;;;28.30;59.50;;;;;;10980743;32;20053;-74
2022/05/26 15:02:53;;;;;;;4.78;2.33;;;28.30;59.60;;;;;;10977237;32;20062;-74
2022/05/26 15:08:55;;;;;;;7.80;2.58;;;28.50;59.60;;;;;;10980271;32;20045;-74
2022/05/26 15:14:57;;;;;;;12.30;3.62;;;28.50;59.50;;;;;;10966551;32;20018;-74
2022/05/26 15:20:59;;;;;;;6.32;2.17;;;28.60;59.40;;;;;;10979845;32;20022;-74
2022/05/26 15:27:02;;;;;;;3.75;2.05;;;28.50;59.60;;;;;;10977404;32;20027;-73
2022/05/26 15:33:04;;;;;;;4.68;2.10;;;28.60;59.60;;;;;;10976969;32;20031;-73
2022/05/26 15:39:06;;;;;;;6.18;1.87;;;28.50;59.50;;;;;;10975579;32;20390;-74
2022/05/26 15:45:24;;;;;;;2.95;1.98;;;28.50;59.50;;;;;;10979231;32;20072;-74
2022/05/26 15:51:26;;;;;;;6.12;2.12;;;28.50;59.50;;;;;;10982253;32;20056;-74
2022/05/26 15:57:29;;;;;;;4.75;2.15;;;28.60;59.50;;;;;;10985316;32;20099;-74
2022/05/26 16:03:33;;;;;;;3.95;2.12;;;28.60;59.40;;;;;;10986532;32;20018;-74
2022/05/26 16:09:36;;;;;;;5.78;2.17;;;28.60;59.30;;;;;;10986736;32;20061;-74
2022/05/26 16:15:40;;;;;;;3.87;2.25;;;28.70;59.10;;;;;;10956320;32;20125;-74
2022/05/26 16:21:44;;;;;;;3.20;1.65;;;28.70;59.20;;;;;;10947138;32;20065;-76
2022/05/26 16:27:47;;;;;;;4.53;2.22;;;28.70;59.50;;;;;;10985625;32;20048;-76
2022/05/26 16:33:50;;;;;;;4.30;2.25;;;28.60;59.50;;;;;;10985572;32;20053;-76
2022/05/26 16:39:53;;;;;;;4.10;2.00;;;28.60;59.50;;;;;;10972283;32;20336;-76
2022/05/26 16:45:55;;;;;;;4.43;2.00;;;28.70;59.50;;;;;;10981145;32;20031;-76
2022/05/26 16:51:57;;;;;;;3.55;1.87;;;28.80;59.50;;;;;;10984505;32;20022;-74
2022/05/26 16:57:59;;;;;;;4.93;2.10;;;28.90;59.10;;;;;;10979623;32;20429;-74
2022/05/26 17:04:02;;;;;;;3.67;1.90;;;29.10;58.80;;;;;;10983996;32;20023;-74
2022/05/26 17:10:10;;;;;;;3.60;2.22;;;29.00;58.80;;;;;;10984287;32;20026;-74
2022/05/26 17:22:33;;;;;;;3.05;1.52;;;28.90;58.90;;;;;;10900725;32;20047;-74
2022/05/26 17:28:35;;;;;;;3.72;2.05;;;28.80;59.20;;;;;;10887583;32;20396;-74
2022/05/26 17:34:37;;;;;;;7.57;2.83;;;28.70;59.40;;;;;;10889392;32;20105;-74
2022/05/26 17:40:42;;;;;;;4.20;1.50;;;28.60;59.60;;;;;;10882299;32;20035;-74
2022/05/26 17:47:10;;;;;;;2.95;1.52;;;28.40;59.90;;;;;;10871129;32;20054;-74
2022/05/26 17:53:12;;;;;;;2.37;1.53;;;28.30;60.20;;;;;;10870702;32;20027;-74
2022/05/26 17:59:16;;;;;;;5.62;1.40;;;28.20;60.50;;;;;;10878474;32;20090;-74
2022/05/26 18:05:19;;;;;;;3.03;1.52;;;28.10;60.80;;;;;;10870866;32;20442;-74
2022/05/26 18:11:22;;;;;;;3.03;1.45;;;28.00;61.10;;;;;;10869489;32;20050;-74
2022/05/26 18:17:27;;;;;;;3.65;1.83;;;28.00;61.30;;;;;;10867038;32;20078;-75
2022/05/26 18:23:40;;;;;;;4.20;1.65;;;27.90;61.40;;;;;;10869441;32;20447;-74
2022/05/26 18:29:43;;;;;;;6.18;1.33;;;27.90;61.70;;;;;;10901567;32;20058;-74
2022/05/26 18:35:45;;;;;;;2.53;1.25;;;27.80;61.80;;;;;;10876487;32;20058;-74
2022/05/26 18:41:48;;;;;;;1.52;1.25;;;27.70;62.00;;;;;;10871873;32;20027;-74
2022/05/26 18:47:56;;;;;;;4.53;1.87;;;27.60;62.30;;;;;;10885184;32;20686;-75
2022/05/26 18:53:58;;;;;;;3.10;1.50;;;27.50;62.80;;;;;;10883631;32;20046;-74
2022/05/26 19:00:07;;;;;;;6.35;1.67;;;27.40;63.00;;;;;;10869058;32;20036;-74
2022/05/26 19:06:11;;;;;;;2.90;1.62;;;27.30;63.20;;;;;;10886166;32;20039;-74
2022/05/26 19:12:26;;;;;;;2.97;1.80;;;27.20;63.40;;;;;;10887495;32;20293;-74
2022/05/26 19:18:29;;;;;;;5.43;2.70;;;27.20;63.90;;;;;;10904746;32;20105;-74
2022/05/26 19:24:38;;;;;;;3.00;1.98;;;27.10;64.50;;;;;;10904020;32;20340;-74
2022/05/26 19:31:10;;;;;;;3.50;2.03;;;26.90;65.20;;;;;;10888810;32;20346;-74
2022/05/26 19:37:25;;;;;;;2.78;1.95;;;26.90;65.20;;;;;;10904484;32;20027;-74
2022/05/26 19:44:10;;;;;;;3.90;2.15;;;26.80;65.30;;;;;;10890515;32;20027;-76
2022/05/26 19:51:08;;;;;;;3.33;1.58;;;26.80;65.50;;;;;;10681115;33;20097;-76
2022/05/26 19:57:11;;;;;;;5.25;2.28;;;26.60;65.70;;;;;;10679859;33;20052;-76
2022/05/26 20:03:14;;;;;;;10.57;2.53;;;26.60;66.00;;;;;;10678435;33;20106;-76
2022/05/26 20:09:18;;;;;;;14.63;2.35;;;26.60;66.10;;;;;;10680745;33;20029;-76
2022/05/26 20:15:21;;;;;;;11.02;2.42;;;26.40;66.20;;;;;;10680046;33;20048;-76
2022/05/26 20:21:23;;;;;;;4.65;2.17;;;26.40;66.70;;;;;;10680603;33;20025;-74
2022/05/26 20:27:29;;;;;;;10.45;2.00;;;26.30;67.20;;;;;;10856228;32;20019;-74
2022/05/26 20:33:32;;;;;;;6.87;2.87;;;26.30;67.20;;;;;;10906195;32;20027;-74
2022/05/26 20:39:37;;;;;;;11.75;2.40;;;26.30;67.30;;;;;;10892740;32;20069;-73
2022/05/26 20:45:44;;;;;;;3.53;1.98;;;26.20;67.40;;;;;;10896579;32;20053;-74
2022/05/26 20:51:46;;;;;;;3.47;1.87;;;26.10;67.60;;;;;;10905735;32;20031;-74
2022/05/26 20:57:48;;;;;;;3.47;2.05;;;26.10;68.40;;;;;;10907888;32;20339;-74
2022/05/26 21:03:50;;;;;;;4.20;1.98;;;26.00;68.60;;;;;;10909501;32;20395;-74
2022/05/26 21:09:52;;;;;;;7.43;2.42;;;25.90;68.50;;;;;;10895565;32;20053;-74
2022/05/26 21:15:55;;;;;;;7.62;2.92;;;25.80;68.70;;;;;;10908971;32;20046;-74
2022/05/26 21:21:57;;;;;;;7.22;3.40;;;25.80;69.10;;;;;;10908774;32;20054;-76
2022/05/26 21:28:00;;;;;;;6.18;3.55;;;25.80;69.30;;;;;;10908513;32;20016;-77
2022/05/26 21:34:02;;;;;;;10.40;2.85;;;25.80;69.10;;;;;;10908492;32;20050;-76
2022/05/26 21:40:05;;;;;;;6.10;2.72;;;25.80;69.20;;;;;;10904254;32;20054;-77
2022/05/26 21:46:11;;;;;;;8.52;2.65;;;25.70;69.40;;;;;;10906551;32;20027;-76
2022/05/26 21:52:18;;;;;;;7.22;3.20;;;25.60;69.40;;;;;;10874546;32;20027;-76
2022/05/26 21:58:20;;;;;;;4.62;2.35;;;25.60;69.50;;;;;;10870155;32;20321;-76
2022/05/26 22:10:56;;;;;;;6.25;2.62;;;25.50;69.90;;;;;;10717134;33;20090;-76
2022/05/26 22:16:59;;;;;;;7.72;4.03;;;25.50;69.80;;;;;;10718613;33;20326;-76
2022/05/26 22:23:02;;;;;;;9.98;3.22;;;25.40;69.80;;;;;;10719477;33;20033;-76
2022/05/26 22:29:04;;;;;;;10.18;3.50;;;25.30;70.00;;;;;;10717383;33;20049;-77
2022/05/26 22:35:22;;;;;;;4.12;2.60;;;25.30;70.20;;;;;;10718986;33;20056;-76
2022/05/26 22:41:28;;;;;;;7.65;3.17;;;25.30;70.80;;;;;;10718747;33;20083;-76
2022/05/26 22:47:32;;;;;;;6.57;2.67;;;25.20;70.60;;;;;;10829211;32;20024;-76
2022/05/26 22:53:34;;;;;;;4.55;2.53;;;25.10;70.80;;;;;;10868326;32;20056;-76
2022/05/26 22:59:36;;;;;;;3.00;2.08;;;25.10;71.10;;;;;;10866257;32;20027;-76
2022/05/26 23:05:39;;;;;;;4.68;2.97;;;25.00;71.00;;;;;;10867924;32;20046;-76
2022/05/26 23:11:41;;;;;;;5.72;2.97;;;24.90;71.00;;;;;;10867762;32;20020;-76
2022/05/26 23:17:44;;;;;;;4.95;2.92;;;25.00;71.10;;;;;;10867520;32;20372;-76
2022/05/26 23:23:47;;;;;;;3.70;2.62;;;24.90;71.10;;;;;;10866675;32;20032;-76
2022/05/26 23:29:49;;;;;;;7.68;3.15;;;24.90;71.00;;;;;;10866507;32;20046;-75
2022/05/26 23:35:51;;;;;;;6.43;3.35;;;24.80;71.10;;;;;;10866257;32;20341;-76
2022/05/26 23:48:14;;;;;;;11.82;3.28;;;24.60;71.40;;;;;;10868009;32;20463;-76
2022/05/26 23:54:16;;;;;;;9.25;3.72;;;24.60;71.70;;;;;;10866791;32;20332;-76
